sensor_id;sensor_type;location;lat;lon;timestamp;P1;durP1;ratioP1;P2;durP2;ratioP2
76373;SDS011;65197;50.164;8.012;2023-05-18T00:01:27;6.70;;;2.95;;
76373;SDS011;65197;50.164;8.012;2023-05-18T00:03:54;7.40;;;2.90;;
76373;SDS011;65197;50.164;8.012;2023-05-18T00:06:21;8.57;;;3.80;;
76373;SDS011;65197;50.164;8.012;2023-05-18T00:08:49;7.40;;;2.88;;
76373;SDS011;65197;50.164;8.012;2023-05-18T00:11:15;9.60;;;3.40;;
76373;SDS011;65197;50.164;8.012;2023-05-18T00:13:41;15.02;;;3.92;;
76373;SDS011;65197;50.164;8.012;2023-05-18T00:16:07;7.70;;;3.28;;
76373;SDS011;65197;50.164;8.012;2023-05-18T00:18:32;9.75;;;3.10;;
76373;SDS011;65197;50.164;8.012;2023-05-18T00:20:58;7.85;;;2.85;;
76373;SDS011;65197;50.164;8.012;2023-05-18T00:23:28;11.02;;;3.22;;
76373;SDS011;65197;50.164;8.012;2023-05-18T00:25:55;8.88;;;3.20;;
76373;SDS011;65197;50.164;8.012;2023-05-18T00:28:22;6.93;;;2.95;;
76373;SDS011;65197;50.164;8.012;2023-05-18T00:30:47;7.30;;;3.38;;
76373;SDS011;65197;50.164;8.012;2023-05-18T00:33:12;6.10;;;3.08;;
76373;SDS011;65197;50.164;8.012;2023-05-18T00:35:38;5.97;;;2.80;;
76373;SDS011;65197;50.164;8.012;2023-05-18T00:38:03;5.97;;;2.90;;
76373;SDS011;65197;50.164;8.012;2023-05-18T00:40:29;6.07;;;2.75;;
76373;SDS011;65197;50.164;8.012;2023-05-18T00:42:54;6.43;;;2.85;;
76373;SDS011;65197;50.164;8.012;2023-05-18T00:45:20;8.77;;;3.28;;
76373;SDS011;65197;50.164;8.012;2023-05-18T00:47:45;9.85;;;3.38;;
76373;SDS011;65197;50.164;8.012;2023-05-18T00:50:12;6.78;;;3.10;;
76373;SDS011;65197;50.164;8.012;2023-05-18T00:52:37;5.93;;;2.97;;
76373;SDS011;65197;50.164;8.012;2023-05-18T00:55:04;8.93;;;3.15;;
76373;SDS011;65197;50.164;8.012;2023-05-18T00:57:30;10.48;;;3.15;;
76373;SDS011;65197;50.164;8.012;2023-05-18T00:59:57;9.48;;;3.22;;
76373;SDS011;65197;50.164;8.012;2023-05-18T01:02:24;9.95;;;3.30;;
76373;SDS011;65197;50.164;8.012;2023-05-18T01:04:54;9.65;;;3.30;;
76373;SDS011;65197;50.164;8.012;2023-05-18T01:07:20;10.13;;;3.65;;
76373;SDS011;65197;50.164;8.012;2023-05-18T01:09:50;7.75;;;3.15;;
76373;SDS011;65197;50.164;8.012;2023-05-18T01:12:28;7.03;;;2.53;;
76373;SDS011;65197;50.164;8.012;2023-05-18T01:17:52;7.72;;;3.15;;
76373;SDS011;65197;50.164;8.012;2023-05-18T01:26:06;4.85;;;2.72;;
76373;SDS011;65197;50.164;8.012;2023-05-18T01:28:33;8.02;;;2.65;;
76373;SDS011;65197;50.164;8.012;2023-05-18T01:30:59;5.80;;;3.00;;
76373;SDS011;65197;50.164;8.012;2023-05-18T01:33:25;7.40;;;3.08;;
76373;SDS011;65197;50.164;8.012;2023-05-18T01:35:50;5.35;;;2.65;;
76373;SDS011;65197;50.164;8.012;2023-05-18T01:38:17;7.88;;;2.85;;
76373;SDS011;65197;50.164;8.012;2023-05-18T01:41:30;6.55;;;2.42;;
76373;SDS011;65197;50.164;8.012;2023-05-18T01:43:46;9.32;;;3.58;;
76373;SDS011;65197;50.164;8.012;2023-05-18T01:46:20;8.57;;;3.47;;
76373;SDS011;65197;50.164;8.012;2023-05-18T01:48:55;8.13;;;2.75;;
76373;SDS011;65197;50.164;8.012;2023-05-18T01:51:25;6.32;;;2.78;;
76373;SDS011;65197;50.164;8.012;2023-05-18T01:53:58;8.57;;;3.00;;
76373;SDS011;65197;50.164;8.012;2023-05-18T01:56:26;6.50;;;3.00;;
76373;SDS011;65197;50.164;8.012;2023-05-18T01:58:54;8.90;;;3.17;;
76373;SDS011;65197;50.164;8.012;2023-05-18T02:01:21;12.43;;;3.30;;
76373;SDS011;65197;50.164;8.012;2023-05-18T02:03:47;5.00;;;2.85;;
76373;SDS011;65197;50.164;8.012;2023-05-18T02:06:13;7.93;;;3.33;;
76373;SDS011;65197;50.164;8.012;2023-05-18T02:08:38;6.25;;;3.38;;
76373;SDS011;65197;50.164;8.012;2023-05-18T02:11:04;7.40;;;3.17;;
76373;SDS011;65197;50.164;8.012;2023-05-18T02:13:30;8.73;;;4.35;;
76373;SDS011;65197;50.164;8.012;2023-05-18T02:15:55;6.85;;;3.38;;
76373;SDS011;65197;50.164;8.012;2023-05-18T02:18:20;6.55;;;2.92;;
76373;SDS011;65197;50.164;8.012;2023-05-18T02:20:46;5.68;;;2.65;;
76373;SDS011;65197;50.164;8.012;2023-05-18T02:23:13;7.93;;;3.30;;
76373;SDS011;65197;50.164;8.012;2023-05-18T02:25:39;7.63;;;3.22;;
76373;SDS011;65197;50.164;8.012;2023-05-18T02:28:05;7.57;;;3.28;;
76373;SDS011;65197;50.164;8.012;2023-05-18T02:30:31;14.38;;;4.35;;
76373;SDS011;65197;50.164;8.012;2023-05-18T02:32:57;8.02;;;3.20;;
76373;SDS011;65197;50.164;8.012;2023-05-18T02:35:23;10.73;;;4.30;;
76373;SDS011;65197;50.164;8.012;2023-05-18T02:37:48;8.05;;;3.65;;
76373;SDS011;65197;50.164;8.012;2023-05-18T02:40:14;9.45;;;3.72;;
76373;SDS011;65197;50.164;8.012;2023-05-18T02:42:42;9.25;;;3.50;;
76373;SDS011;65197;50.164;8.012;2023-05-18T02:45:07;11.00;;;4.30;;
76373;SDS011;65197;50.164;8.012;2023-05-18T02:47:33;5.70;;;3.33;;
76373;SDS011;65197;50.164;8.012;2023-05-18T02:49:59;10.52;;;4.22;;
76373;SDS011;65197;50.164;8.012;2023-05-18T02:52:24;9.73;;;3.88;;
76373;SDS011;65197;50.164;8.012;2023-05-18T02:54:49;9.45;;;3.60;;
76373;SDS011;65197;50.164;8.012;2023-05-18T02:57:18;8.95;;;3.78;;
76373;SDS011;65197;50.164;8.012;2023-05-18T02:59:44;6.25;;;3.65;;
76373;SDS011;65197;50.164;8.012;2023-05-18T03:02:10;5.60;;;3.33;;
76373;SDS011;65197;50.164;8.012;2023-05-18T03:04:38;9.40;;;3.50;;
76373;SDS011;65197;50.164;8.012;2023-05-18T03:07:03;10.32;;;4.03;;
76373;SDS011;65197;50.164;8.012;2023-05-18T03:09:31;9.02;;;3.47;;
76373;SDS011;65197;50.164;8.012;2023-05-18T03:11:57;10.18;;;3.72;;
76373;SDS011;65197;50.164;8.012;2023-05-18T03:14:22;10.98;;;4.13;;
76373;SDS011;65197;50.164;8.012;2023-05-18T03:16:48;10.07;;;3.50;;
76373;SDS011;65197;50.164;8.012;2023-05-18T03:19:18;13.27;;;4.22;;
76373;SDS011;65197;50.164;8.012;2023-05-18T03:21:44;11.30;;;3.85;;
76373;SDS011;65197;50.164;8.012;2023-05-18T03:24:09;7.38;;;3.45;;
76373;SDS011;65197;50.164;8.012;2023-05-18T03:26:38;7.50;;;3.75;;
76373;SDS011;65197;50.164;8.012;2023-05-18T03:29:05;11.10;;;3.70;;
76373;SDS011;65197;50.164;8.012;2023-05-18T03:31:31;7.35;;;3.53;;
76373;SDS011;65197;50.164;8.012;2023-05-18T03:33:56;7.28;;;3.67;;
76373;SDS011;65197;50.164;8.012;2023-05-18T03:36:22;6.95;;;4.00;;
76373;SDS011;65197;50.164;8.012;2023-05-18T03:38:50;11.52;;;4.50;;
76373;SDS011;65197;50.164;8.012;2023-05-18T03:41:15;12.57;;;4.43;;
76373;SDS011;65197;50.164;8.012;2023-05-18T03:43:41;10.07;;;4.55;;
76373;SDS011;65197;50.164;8.012;2023-05-18T03:46:06;10.85;;;4.50;;
76373;SDS011;65197;50.164;8.012;2023-05-18T03:48:31;10.05;;;4.25;;
76373;SDS011;65197;50.164;8.012;2023-05-18T03:50:57;11.73;;;3.65;;
76373;SDS011;65197;50.164;8.012;2023-05-18T03:53:22;12.25;;;4.57;;
76373;SDS011;65197;50.164;8.012;2023-05-18T03:55:48;10.77;;;5.03;;
76373;SDS011;65197;50.164;8.012;2023-05-18T03:58:13;12.38;;;3.95;;
76373;SDS011;65197;50.164;8.012;2023-05-18T04:00:39;7.40;;;3.70;;
76373;SDS011;65197;50.164;8.012;2023-05-18T04:03:06;10.07;;;3.83;;
76373;SDS011;65197;50.164;8.012;2023-05-18T04:05:37;7.97;;;3.88;;
76373;SDS011;65197;50.164;8.012;2023-05-18T04:08:03;10.57;;;4.07;;
76373;SDS011;65197;50.164;8.012;2023-05-18T04:10:29;8.70;;;3.92;;
76373;SDS011;65197;50.164;8.012;2023-05-18T04:12:54;11.52;;;4.40;;
76373;SDS011;65197;50.164;8.012;2023-05-18T04:15:20;10.70;;;4.22;;
76373;SDS011;65197;50.164;8.012;2023-05-18T04:17:45;6.32;;;3.65;;
76373;SDS011;65197;50.164;8.012;2023-05-18T04:20:13;12.02;;;4.30;;
76373;SDS011;65197;50.164;8.012;2023-05-18T04:22:43;9.55;;;4.63;;
76373;SDS011;65197;50.164;8.012;2023-05-18T04:25:11;7.43;;;3.67;;
76373;SDS011;65197;50.164;8.012;2023-05-18T04:27:38;9.93;;;4.10;;
76373;SDS011;65197;50.164;8.012;2023-05-18T04:30:04;8.35;;;4.10;;
76373;SDS011;65197;50.164;8.012;2023-05-18T04:32:32;8.55;;;3.65;;
76373;SDS011;65197;50.164;8.012;2023-05-18T04:35:00;7.15;;;3.67;;
76373;SDS011;65197;50.164;8.012;2023-05-18T04:37:30;3.95;;;3.10;;
76373;SDS011;65197;50.164;8.012;2023-05-18T04:39:56;8.95;;;3.75;;
76373;SDS011;65197;50.164;8.012;2023-05-18T04:42:22;5.68;;;3.47;;
76373;SDS011;65197;50.164;8.012;2023-05-18T04:44:48;8.82;;;3.80;;
76373;SDS011;65197;50.164;8.012;2023-05-18T04:47:16;5.00;;;3.28;;
76373;SDS011;65197;50.164;8.012;2023-05-18T04:49:41;7.60;;;3.33;;
76373;SDS011;65197;50.164;8.012;2023-05-18T04:52:07;6.55;;;3.28;;
76373;SDS011;65197;50.164;8.012;2023-05-18T04:54:34;7.38;;;3.22;;
76373;SDS011;65197;50.164;8.012;2023-05-18T04:56:59;9.10;;;3.72;;
76373;SDS011;65197;50.164;8.012;2023-05-18T04:59:27;9.25;;;3.72;;
76373;SDS011;65197;50.164;8.012;2023-05-18T05:01:52;6.78;;;3.97;;
76373;SDS011;65197;50.164;8.012;2023-05-18T05:04:19;8.15;;;3.53;;
76373;SDS011;65197;50.164;8.012;2023-05-18T05:06:45;7.18;;;3.47;;
76373;SDS011;65197;50.164;8.012;2023-05-18T05:09:11;6.07;;;3.10;;
76373;SDS011;65197;50.164;8.012;2023-05-18T05:11:42;5.78;;;3.70;;
76373;SDS011;65197;50.164;8.012;2023-05-18T05:14:07;7.25;;;3.20;;
76373;SDS011;65197;50.164;8.012;2023-05-18T05:16:33;7.35;;;3.38;;
76373;SDS011;65197;50.164;8.012;2023-05-18T05:18:59;5.85;;;3.03;;
76373;SDS011;65197;50.164;8.012;2023-05-18T05:21:25;7.60;;;3.13;;
76373;SDS011;65197;50.164;8.012;2023-05-18T05:23:50;6.85;;;3.35;;
76373;SDS011;65197;50.164;8.012;2023-05-18T05:26:17;8.98;;;3.10;;
76373;SDS011;65197;50.164;8.012;2023-05-18T05:28:43;6.35;;;3.47;;
76373;SDS011;65197;50.164;8.012;2023-05-18T05:31:08;8.32;;;3.17;;
76373;SDS011;65197;50.164;8.012;2023-05-18T05:33:33;8.70;;;2.97;;
76373;SDS011;65197;50.164;8.012;2023-05-18T05:35:59;8.07;;;3.10;;
76373;SDS011;65197;50.164;8.012;2023-05-18T05:38:24;9.80;;;3.17;;
76373;SDS011;65197;50.164;8.012;2023-05-18T05:40:50;5.40;;;2.97;;
76373;SDS011;65197;50.164;8.012;2023-05-18T05:43:15;6.15;;;3.25;;
76373;SDS011;65197;50.164;8.012;2023-05-18T05:45:41;10.77;;;3.88;;
76373;SDS011;65197;50.164;8.012;2023-05-18T05:48:07;6.05;;;3.00;;
76373;SDS011;65197;50.164;8.012;2023-05-18T05:50:33;5.82;;;3.42;;
76373;SDS011;65197;50.164;8.012;2023-05-18T05:52:58;7.10;;;3.22;;
76373;SDS011;65197;50.164;8.012;2023-05-18T05:55:24;5.55;;;3.15;;
76373;SDS011;65197;50.164;8.012;2023-05-18T05:57:49;6.85;;;3.22;;
76373;SDS011;65197;50.164;8.012;2023-05-18T06:00:15;8.88;;;3.20;;
76373;SDS011;65197;50.164;8.012;2023-05-18T06:02:41;6.57;;;2.70;;
76373;SDS011;65197;50.164;8.012;2023-05-18T06:05:06;4.85;;;2.72;;
76373;SDS011;65197;50.164;8.012;2023-05-18T06:07:33;5.90;;;2.78;;
76373;SDS011;65197;50.164;8.012;2023-05-18T06:09:59;6.40;;;3.35;;
76373;SDS011;65197;50.164;8.012;2023-05-18T06:12:24;8.13;;;3.28;;
76373;SDS011;65197;50.164;8.012;2023-05-18T06:14:50;6.97;;;2.90;;
76373;SDS011;65197;50.164;8.012;2023-05-18T06:17:21;9.15;;;3.13;;
76373;SDS011;65197;50.164;8.012;2023-05-18T06:19:49;6.70;;;3.13;;
76373;SDS011;65197;50.164;8.012;2023-05-18T06:22:15;6.78;;;2.80;;
76373;SDS011;65197;50.164;8.012;2023-05-18T06:24:40;5.50;;;3.20;;
76373;SDS011;65197;50.164;8.012;2023-05-18T06:27:06;9.45;;;3.00;;
76373;SDS011;65197;50.164;8.012;2023-05-18T06:29:32;5.82;;;3.03;;
76373;SDS011;65197;50.164;8.012;2023-05-18T06:31:58;6.50;;;2.88;;
76373;SDS011;65197;50.164;8.012;2023-05-18T06:34:23;6.35;;;2.97;;
76373;SDS011;65197;50.164;8.012;2023-05-18T06:36:48;6.75;;;2.30;;
76373;SDS011;65197;50.164;8.012;2023-05-18T06:39:14;7.90;;;3.08;;
76373;SDS011;65197;50.164;8.012;2023-05-18T06:41:39;6.70;;;2.63;;
76373;SDS011;65197;50.164;8.012;2023-05-18T06:44:05;7.75;;;3.55;;
76373;SDS011;65197;50.164;8.012;2023-05-18T06:46:30;5.57;;;2.55;;
76373;SDS011;65197;50.164;8.012;2023-05-18T06:48:56;6.28;;;3.10;;
76373;SDS011;65197;50.164;8.012;2023-05-18T06:51:21;4.82;;;2.90;;
76373;SDS011;65197;50.164;8.012;2023-05-18T06:53:47;5.80;;;2.70;;
76373;SDS011;65197;50.164;8.012;2023-05-18T06:56:12;5.90;;;2.75;;
76373;SDS011;65197;50.164;8.012;2023-05-18T06:58:39;7.68;;;2.78;;
76373;SDS011;65197;50.164;8.012;2023-05-18T07:01:05;6.60;;;2.63;;
76373;SDS011;65197;50.164;8.012;2023-05-18T07:03:30;8.05;;;2.42;;
76373;SDS011;65197;50.164;8.012;2023-05-18T07:05:56;6.75;;;2.90;;
76373;SDS011;65197;50.164;8.012;2023-05-18T07:08:22;6.88;;;2.60;;
76373;SDS011;65197;50.164;8.012;2023-05-18T07:10:49;5.32;;;2.78;;
76373;SDS011;65197;50.164;8.012;2023-05-18T07:13:14;6.78;;;2.95;;
76373;SDS011;65197;50.164;8.012;2023-05-18T07:15:40;5.75;;;2.50;;
76373;SDS011;65197;50.164;8.012;2023-05-18T07:18:05;5.30;;;2.63;;
76373;SDS011;65197;50.164;8.012;2023-05-18T07:20:30;6.10;;;3.22;;
76373;SDS011;65197;50.164;8.012;2023-05-18T07:22:56;6.28;;;2.67;;
76373;SDS011;65197;50.164;8.012;2023-05-18T07:25:22;9.20;;;2.92;;
76373;SDS011;65197;50.164;8.012;2023-05-18T07:27:47;7.60;;;2.90;;
76373;SDS011;65197;50.164;8.012;2023-05-18T07:30:13;7.20;;;3.00;;
76373;SDS011;65197;50.164;8.012;2023-05-18T07:32:38;4.97;;;2.22;;
76373;SDS011;65197;50.164;8.012;2023-05-18T07:35:04;4.20;;;2.60;;
76373;SDS011;65197;50.164;8.012;2023-05-18T07:37:29;4.43;;;2.47;;
76373;SDS011;65197;50.164;8.012;2023-05-18T07:39:55;8.70;;;3.03;;
76373;SDS011;65197;50.164;8.012;2023-05-18T07:42:20;7.72;;;3.10;;
76373;SDS011;65197;50.164;8.012;2023-05-18T07:44:46;6.35;;;2.78;;
76373;SDS011;65197;50.164;8.012;2023-05-18T07:47:11;7.32;;;2.80;;
76373;SDS011;65197;50.164;8.012;2023-05-18T07:49:37;5.43;;;2.45;;
76373;SDS011;65197;50.164;8.012;2023-05-18T07:52:05;8.75;;;3.10;;
76373;SDS011;65197;50.164;8.012;2023-05-18T07:54:32;5.80;;;3.00;;
76373;SDS011;65197;50.164;8.012;2023-05-18T07:56:57;6.03;;;2.60;;
76373;SDS011;65197;50.164;8.012;2023-05-18T07:59:23;7.35;;;2.80;;
76373;SDS011;65197;50.164;8.012;2023-05-18T08:01:48;7.35;;;2.63;;
76373;SDS011;65197;50.164;8.012;2023-05-18T08:04:13;7.32;;;2.90;;
76373;SDS011;65197;50.164;8.012;2023-05-18T08:06:39;6.82;;;3.20;;
76373;SDS011;65197;50.164;8.012;2023-05-18T08:09:04;6.13;;;3.03;;
76373;SDS011;65197;50.164;8.012;2023-05-18T08:11:31;11.10;;;3.30;;
76373;SDS011;65197;50.164;8.012;2023-05-18T08:13:56;6.43;;;2.85;;
76373;SDS011;65197;50.164;8.012;2023-05-18T08:16:22;5.75;;;2.53;;
76373;SDS011;65197;50.164;8.012;2023-05-18T08:18:47;7.35;;;3.00;;
76373;SDS011;65197;50.164;8.012;2023-05-18T08:21:13;7.38;;;2.65;;
76373;SDS011;65197;50.164;8.012;2023-05-18T08:23:38;8.32;;;2.97;;
76373;SDS011;65197;50.164;8.012;2023-05-18T08:26:04;9.77;;;3.05;;
76373;SDS011;65197;50.164;8.012;2023-05-18T08:28:30;6.93;;;2.85;;
76373;SDS011;65197;50.164;8.012;2023-05-18T08:30:56;4.75;;;2.78;;
76373;SDS011;65197;50.164;8.012;2023-05-18T08:33:21;5.10;;;2.80;;
76373;SDS011;65197;50.164;8.012;2023-05-18T08:35:47;5.15;;;2.60;;
76373;SDS011;65197;50.164;8.012;2023-05-18T08:38:13;9.05;;;3.20;;
76373;SDS011;65197;50.164;8.012;2023-05-18T08:40:41;8.57;;;3.08;;
76373;SDS011;65197;50.164;8.012;2023-05-18T08:43:11;4.88;;;2.40;;
76373;SDS011;65197;50.164;8.012;2023-05-18T08:45:49;6.40;;;3.53;;
76373;SDS011;65197;50.164;8.012;2023-05-18T08:48:19;7.57;;;2.63;;
76373;SDS011;65197;50.164;8.012;2023-05-18T08:50:47;7.75;;;2.65;;
76373;SDS011;65197;50.164;8.012;2023-05-18T08:53:13;6.95;;;3.13;;
76373;SDS011;65197;50.164;8.012;2023-05-18T08:58:09;6.25;;;2.33;;
76373;SDS011;65197;50.164;8.012;2023-05-18T09:00:41;6.30;;;2.63;;
76373;SDS011;65197;50.164;8.012;2023-05-18T09:03:06;9.57;;;2.80;;
76373;SDS011;65197;50.164;8.012;2023-05-18T09:05:32;6.32;;;2.38;;
76373;SDS011;65197;50.164;8.012;2023-05-18T09:07:57;9.13;;;3.00;;
76373;SDS011;65197;50.164;8.012;2023-05-18T09:10:23;3.80;;;2.30;;
76373;SDS011;65197;50.164;8.012;2023-05-18T09:12:50;4.63;;;2.63;;
76373;SDS011;65197;50.164;8.012;2023-05-18T09:15:16;8.02;;;2.85;;
76373;SDS011;65197;50.164;8.012;2023-05-18T09:17:42;7.30;;;2.83;;
76373;SDS011;65197;50.164;8.012;2023-05-18T09:20:08;6.47;;;2.50;;
76373;SDS011;65197;50.164;8.012;2023-05-18T09:22:34;5.38;;;2.60;;
76373;SDS011;65197;50.164;8.012;2023-05-18T09:25:00;6.20;;;2.83;;
76373;SDS011;65197;50.164;8.012;2023-05-18T09:27:30;7.40;;;3.20;;
76373;SDS011;65197;50.164;8.012;2023-05-18T09:29:56;7.03;;;2.60;;
76373;SDS011;65197;50.164;8.012;2023-05-18T09:32:23;5.93;;;2.78;;
76373;SDS011;65197;50.164;8.012;2023-05-18T09:34:49;7.70;;;2.75;;
76373;SDS011;65197;50.164;8.012;2023-05-18T09:37:15;7.47;;;2.90;;
76373;SDS011;65197;50.164;8.012;2023-05-18T09:39:41;8.85;;;3.80;;
76373;SDS011;65197;50.164;8.012;2023-05-18T09:42:07;6.35;;;2.75;;
76373;SDS011;65197;50.164;8.012;2023-05-18T09:44:32;4.55;;;2.72;;
76373;SDS011;65197;50.164;8.012;2023-05-18T09:46:58;7.03;;;3.00;;
76373;SDS011;65197;50.164;8.012;2023-05-18T09:49:24;6.70;;;2.90;;
76373;SDS011;65197;50.164;8.012;2023-05-18T09:51:49;6.05;;;2.78;;
76373;SDS011;65197;50.164;8.012;2023-05-18T09:54:15;4.97;;;2.50;;
76373;SDS011;65197;50.164;8.012;2023-05-18T09:56:40;5.35;;;2.90;;
76373;SDS011;65197;50.164;8.012;2023-05-18T09:59:12;5.30;;;2.95;;
76373;SDS011;65197;50.164;8.012;2023-05-18T10:04:21;5.13;;;2.38;;
76373;SDS011;65197;50.164;8.012;2023-05-18T10:06:49;4.60;;;2.42;;
76373;SDS011;65197;50.164;8.012;2023-05-18T10:09:15;6.18;;;2.83;;
76373;SDS011;65197;50.164;8.012;2023-05-18T10:11:42;5.80;;;3.08;;
76373;SDS011;65197;50.164;8.012;2023-05-18T10:14:10;6.50;;;2.63;;
76373;SDS011;65197;50.164;8.012;2023-05-18T10:16:36;7.38;;;3.30;;
76373;SDS011;65197;50.164;8.012;2023-05-18T10:19:02;6.07;;;3.10;;
76373;SDS011;65197;50.164;8.012;2023-05-18T10:21:32;6.22;;;2.50;;
76373;SDS011;65197;50.164;8.012;2023-05-18T10:23:58;5.35;;;3.00;;
76373;SDS011;65197;50.164;8.012;2023-05-18T10:26:27;9.18;;;2.88;;
76373;SDS011;65197;50.164;8.012;2023-05-18T10:28:54;8.85;;;3.08;;
76373;SDS011;65197;50.164;8.012;2023-05-18T10:31:22;9.50;;;3.33;;
76373;SDS011;65197;50.164;8.012;2023-05-18T10:33:49;5.95;;;2.20;;
76373;SDS011;65197;50.164;8.012;2023-05-18T10:36:16;6.18;;;2.45;;
76373;SDS011;65197;50.164;8.012;2023-05-18T10:38:42;8.15;;;3.20;;
76373;SDS011;65197;50.164;8.012;2023-05-18T10:41:10;5.38;;;2.55;;
76373;SDS011;65197;50.164;8.012;2023-05-18T10:43:37;4.72;;;2.42;;
76373;SDS011;65197;50.164;8.012;2023-05-18T10:46:05;7.97;;;2.47;;
76373;SDS011;65197;50.164;8.012;2023-05-18T10:48:36;6.63;;;2.60;;
76373;SDS011;65197;50.164;8.012;2023-05-18T10:51:04;6.20;;;2.50;;
76373;SDS011;65197;50.164;8.012;2023-05-18T10:53:31;8.95;;;2.80;;
76373;SDS011;65197;50.164;8.012;2023-05-18T10:55:57;5.20;;;2.70;;
76373;SDS011;65197;50.164;8.012;2023-05-18T10:58:23;5.35;;;2.17;;
76373;SDS011;65197;50.164;8.012;2023-05-18T11:00:54;7.60;;;3.30;;
76373;SDS011;65197;50.164;8.012;2023-05-18T11:03:21;7.03;;;2.60;;
76373;SDS011;65197;50.164;8.012;2023-05-18T11:05:48;5.55;;;2.30;;
76373;SDS011;65197;50.164;8.012;2023-05-18T11:08:24;7.13;;;3.03;;
76373;SDS011;65197;50.164;8.012;2023-05-18T11:11:02;7.97;;;3.67;;
76373;SDS011;65197;50.164;8.012;2023-05-18T11:13:31;7.07;;;2.38;;
76373;SDS011;65197;50.164;8.012;2023-05-18T11:29:42;6.10;;;2.38;;
76373;SDS011;65197;50.164;8.012;2023-05-18T11:32:30;4.90;;;2.20;;
76373;SDS011;65197;50.164;8.012;2023-05-18T11:34:58;6.15;;;2.85;;
76373;SDS011;65197;50.164;8.012;2023-05-18T11:40:04;6.15;;;2.40;;
76373;SDS011;65197;50.164;8.012;2023-05-18T11:42:33;4.90;;;2.40;;
76373;SDS011;65197;50.164;8.012;2023-05-18T11:45:09;7.80;;;3.10;;
76373;SDS011;65197;50.164;8.012;2023-05-18T11:47:36;4.18;;;2.30;;
76373;SDS011;65197;50.164;8.012;2023-05-18T11:50:07;9.27;;;2.85;;
76373;SDS011;65197;50.164;8.012;2023-05-18T11:52:45;5.53;;;2.50;;
76373;SDS011;65197;50.164;8.012;2023-05-18T11:55:12;8.20;;;2.92;;
76373;SDS011;65197;50.164;8.012;2023-05-18T11:57:42;8.18;;;2.83;;
76373;SDS011;65197;50.164;8.012;2023-05-18T12:00:11;8.35;;;2.80;;
76373;SDS011;65197;50.164;8.012;2023-05-18T12:02:41;5.70;;;2.72;;
76373;SDS011;65197;50.164;8.012;2023-05-18T12:05:08;5.43;;;2.15;;
76373;SDS011;65197;50.164;8.012;2023-05-18T12:07:34;5.13;;;2.40;;
76373;SDS011;65197;50.164;8.012;2023-05-18T12:10:07;6.70;;;2.50;;
76373;SDS011;65197;50.164;8.012;2023-05-18T12:12:34;5.97;;;2.47;;
76373;SDS011;65197;50.164;8.012;2023-05-18T12:15:01;5.03;;;2.28;;
76373;SDS011;65197;50.164;8.012;2023-05-18T12:20:15;4.35;;;2.30;;
76373;SDS011;65197;50.164;8.012;2023-05-18T12:22:42;6.63;;;2.72;;
76373;SDS011;65197;50.164;8.012;2023-05-18T12:25:14;5.47;;;2.45;;
76373;SDS011;65197;50.164;8.012;2023-05-18T12:27:43;5.70;;;2.58;;
76373;SDS011;65197;50.164;8.012;2023-05-18T12:30:10;6.10;;;2.50;;
76373;SDS011;65197;50.164;8.012;2023-05-18T12:32:37;4.63;;;2.53;;
76373;SDS011;65197;50.164;8.012;2023-05-18T12:35:24;5.47;;;2.30;;
76373;SDS011;65197;50.164;8.012;2023-05-18T12:37:50;5.22;;;3.08;;
76373;SDS011;65197;50.164;8.012;2023-05-18T12:40:16;5.72;;;2.33;;
76373;SDS011;65197;50.164;8.012;2023-05-18T12:42:52;5.32;;;2.55;;
76373;SDS011;65197;50.164;8.012;2023-05-18T12:45:20;7.13;;;2.60;;
76373;SDS011;65197;50.164;8.012;2023-05-18T12:47:47;9.18;;;2.70;;
76373;SDS011;65197;50.164;8.012;2023-05-18T12:50:18;7.30;;;2.70;;
76373;SDS011;65197;50.164;8.012;2023-05-18T12:52:43;7.00;;;2.67;;
76373;SDS011;65197;50.164;8.012;2023-05-18T12:55:09;6.90;;;2.60;;
76373;SDS011;65197;50.164;8.012;2023-05-18T12:57:41;4.72;;;2.40;;
76373;SDS011;65197;50.164;8.012;2023-05-18T13:00:07;5.25;;;2.60;;
76373;SDS011;65197;50.164;8.012;2023-05-18T13:02:36;8.18;;;2.50;;
76373;SDS011;65197;50.164;8.012;2023-05-18T13:05:03;6.82;;;2.50;;
76373;SDS011;65197;50.164;8.012;2023-05-18T13:07:29;7.50;;;2.92;;
76373;SDS011;65197;50.164;8.012;2023-05-18T13:10:28;7.13;;;2.45;;
76373;SDS011;65197;50.164;8.012;2023-05-18T13:12:47;6.07;;;2.60;;
76373;SDS011;65197;50.164;8.012;2023-05-18T13:15:14;4.40;;;2.38;;
76373;SDS011;65197;50.164;8.012;2023-05-18T13:18:03;6.50;;;2.50;;
76373;SDS011;65197;50.164;8.012;2023-05-18T13:20:34;9.55;;;2.88;;
76373;SDS011;65197;50.164;8.012;2023-05-18T13:23:06;8.07;;;3.05;;
76373;SDS011;65197;50.164;8.012;2023-05-18T13:25:33;6.93;;;2.90;;
76373;SDS011;65197;50.164;8.012;2023-05-18T13:27:59;5.97;;;2.67;;
76373;SDS011;65197;50.164;8.012;2023-05-18T13:30:25;5.70;;;2.67;;
76373;SDS011;65197;50.164;8.012;2023-05-18T13:32:51;10.23;;;2.70;;
76373;SDS011;65197;50.164;8.012;2023-05-18T13:35:17;5.35;;;2.20;;
76373;SDS011;65197;50.164;8.012;2023-05-18T13:37:44;5.72;;;2.60;;
76373;SDS011;65197;50.164;8.012;2023-05-18T13:40:11;6.47;;;2.78;;
76373;SDS011;65197;50.164;8.012;2023-05-18T13:42:37;5.57;;;2.40;;
76373;SDS011;65197;50.164;8.012;2023-05-18T13:45:03;11.10;;;3.03;;
76373;SDS011;65197;50.164;8.012;2023-05-18T13:47:29;6.35;;;2.65;;
76373;SDS011;65197;50.164;8.012;2023-05-18T13:49:54;9.23;;;3.22;;
76373;SDS011;65197;50.164;8.012;2023-05-18T13:52:20;5.03;;;2.35;;
76373;SDS011;65197;50.164;8.012;2023-05-18T13:54:45;5.93;;;2.28;;
76373;SDS011;65197;50.164;8.012;2023-05-18T13:57:11;7.25;;;2.67;;
76373;SDS011;65197;50.164;8.012;2023-05-18T13:59:36;6.28;;;2.85;;
76373;SDS011;65197;50.164;8.012;2023-05-18T14:02:01;6.50;;;2.65;;
76373;SDS011;65197;50.164;8.012;2023-05-18T14:04:27;8.00;;;2.95;;
76373;SDS011;65197;50.164;8.012;2023-05-18T14:06:52;5.35;;;2.35;;
76373;SDS011;65197;50.164;8.012;2023-05-18T14:09:20;5.82;;;2.55;;
76373;SDS011;65197;50.164;8.012;2023-05-18T14:11:46;6.05;;;2.50;;
76373;SDS011;65197;50.164;8.012;2023-05-18T14:14:11;4.63;;;2.53;;
76373;SDS011;65197;50.164;8.012;2023-05-18T14:16:36;4.60;;;2.58;;
76373;SDS011;65197;50.164;8.012;2023-05-18T14:19:02;5.00;;;2.70;;
76373;SDS011;65197;50.164;8.012;2023-05-18T14:21:27;5.22;;;2.45;;
76373;SDS011;65197;50.164;8.012;2023-05-18T14:23:53;5.47;;;2.75;;
76373;SDS011;65197;50.164;8.012;2023-05-18T14:26:18;7.38;;;2.75;;
76373;SDS011;65197;50.164;8.012;2023-05-18T14:28:43;9.10;;;2.85;;
76373;SDS011;65197;50.164;8.012;2023-05-18T14:31:09;7.40;;;2.65;;
76373;SDS011;65197;50.164;8.012;2023-05-18T14:33:34;7.88;;;2.75;;
76373;SDS011;65197;50.164;8.012;2023-05-18T14:36:00;6.32;;;2.97;;
76373;SDS011;65197;50.164;8.012;2023-05-18T14:38:25;5.72;;;2.53;;
76373;SDS011;65197;50.164;8.012;2023-05-18T14:40:53;5.32;;;2.13;;
76373;SDS011;65197;50.164;8.012;2023-05-18T14:43:19;5.05;;;2.30;;
76373;SDS011;65197;50.164;8.012;2023-05-18T14:45:45;6.75;;;2.33;;
76373;SDS011;65197;50.164;8.012;2023-05-18T14:48:10;4.60;;;2.33;;
76373;SDS011;65197;50.164;8.012;2023-05-18T14:50:36;4.97;;;2.30;;
76373;SDS011;65197;50.164;8.012;2023-05-18T14:53:01;6.82;;;2.55;;
76373;SDS011;65197;50.164;8.012;2023-05-18T14:55:27;3.63;;;2.20;;
76373;SDS011;65197;50.164;8.012;2023-05-18T14:57:52;6.03;;;2.30;;
76373;SDS011;65197;50.164;8.012;2023-05-18T15:00:18;6.63;;;2.42;;
76373;SDS011;65197;50.164;8.012;2023-05-18T15:02:43;5.88;;;2.58;;
76373;SDS011;65197;50.164;8.012;2023-05-18T15:05:09;7.15;;;2.50;;
76373;SDS011;65197;50.164;8.012;2023-05-18T15:07:34;4.35;;;2.30;;
76373;SDS011;65197;50.164;8.012;2023-05-18T15:09:59;6.82;;;3.42;;
76373;SDS011;65197;50.164;8.012;2023-05-18T15:12:25;7.72;;;2.53;;
76373;SDS011;65197;50.164;8.012;2023-05-18T15:14:50;5.72;;;3.10;;
76373;SDS011;65197;50.164;8.012;2023-05-18T15:17:16;11.00;;;5.55;;